Time;durP1;ratioP1;P1;durP2;ratioP2;P2;SDS_P1;SDS_P2;PMS_P1;PMS_P2;Temp;Humidity;BMP_temperature;BMP_pressure;BME280_temperature;BME280_humidity;BME280_pressure;Samples;Min_cycle;Max_cycle;Signal;HPM_P1;HPM_P2
2022/01/30 00:01:44;;;;;;;27.10;4.80;;;8.60;99.90;;;;;;5069080;28;20519;-66
2022/01/30 00:04:10;;;;;;;27.98;5.18;;;8.50;99.90;;;;;;5070041;28;20024;-66
2022/01/30 00:06:36;;;;;;;27.52;4.85;;;8.50;99.90;;;;;;5059554;28;20739;-68
2022/01/30 00:09:02;;;;;;;24.85;3.95;;;8.40;99.90;;;;;;5063549;28;20043;-68
2022/01/30 00:11:33;;;;;;;24.00;4.07;;;8.40;99.90;;;;;;5057971;28;20028;-68
2022/01/30 00:14:00;;;;;;;28.38;5.03;;;8.40;99.90;;;;;;5064522;28;20043;-66
2022/01/30 00:16:31;;;;;;;26.67;5.28;;;8.30;99.90;;;;;;5061152;28;20025;-67
2022/01/30 00:24:08;;;;;;;29.00;5.13;;;8.40;99.90;;;;;;5056597;28;20048;-67
2022/01/30 00:26:36;;;;;;;29.23;4.43;;;8.40;99.90;;;;;;5067753;28;20029;-67
2022/01/30 00:29:03;;;;;;;28.00;4.25;;;8.40;99.90;;;;;;5061145;28;20048;-67
2022/01/30 00:31:30;;;;;;;29.80;4.72;;;8.40;99.90;;;;;;5035029;28;20430;-67
2022/01/30 00:33:56;;;;;;;30.15;5.18;;;8.40;99.90;;;;;;5069416;28;20457;-67
2022/01/30 00:36:22;;;;;;;34.58;5.40;;;8.30;99.90;;;;;;5057173;28;20028;-66
2022/01/30 00:38:47;;;;;;;30.25;4.85;;;8.30;99.90;;;;;;5063530;28;20068;-67
2022/01/30 00:41:13;;;;;;;28.55;4.68;;;8.20;99.90;;;;;;5058908;28;20146;-67
2022/01/30 00:43:39;;;;;;;25.33;4.60;;;8.20;99.90;;;;;;5063153;28;20020;-67
2022/01/30 00:46:04;;;;;;;33.03;4.38;;;8.20;99.90;;;;;;5065929;28;20088;-67
2022/01/30 00:48:30;;;;;;;21.35;4.13;;;8.20;99.90;;;;;;5067327;28;20466;-67
2022/01/30 00:50:55;;;;;;;21.20;4.18;;;8.30;99.90;;;;;;5061270;28;20052;-67
2022/01/30 00:53:21;;;;;;;29.67;4.55;;;8.40;99.90;;;;;;5063060;28;20109;-67
2022/01/30 00:55:47;;;;;;;28.70;4.95;;;8.40;99.90;;;;;;5056482;28;20060;-67
2022/01/30 00:58:13;;;;;;;30.25;5.30;;;8.40;99.90;;;;;;5069234;28;20044;-67
2022/01/30 01:00:39;;;;;;;20.23;3.88;;;8.40;99.90;;;;;;5059170;28;20374;-67
2022/01/30 01:03:05;;;;;;;26.60;4.28;;;8.40;99.90;;;;;;5068705;28;20031;-67
2022/01/30 01:05:33;;;;;;;31.42;5.38;;;8.30;99.90;;;;;;5059004;28;20098;-67
2022/01/30 01:08:07;;;;;;;22.25;4.70;;;8.30;99.90;;;;;;5068693;28;20024;-67
2022/01/30 01:10:42;;;;;;;24.30;3.47;;;8.30;99.90;;;;;;5053359;28;20021;-67
2022/01/30 01:24:03;;;;;;;26.83;4.65;;;8.10;99.90;;;;;;5066494;28;20085;-67
2022/01/30 01:26:29;;;;;;;16.40;3.30;;;8.00;99.90;;;;;;5072840;28;20052;-67
2022/01/30 01:28:55;;;;;;;23.13;3.78;;;8.00;99.90;;;;;;5071489;28;20067;-67
2022/01/30 01:31:20;;;;;;;19.17;3.55;;;8.00;99.90;;;;;;5072647;28;20040;-67
2022/01/30 01:36:22;;;;;;;22.58;3.25;;;7.90;99.90;;;;;;5072571;28;20033;-67
2022/01/30 01:38:47;;;;;;;19.55;3.40;;;7.90;99.90;;;;;;5072129;28;20394;-67
2022/01/30 01:41:17;;;;;;;16.27;3.45;;;7.90;99.90;;;;;;5072244;28;20029;-67
2022/01/30 01:43:43;;;;;;;18.13;2.65;;;7.90;99.90;;;;;;5072497;28;20016;-67
2022/01/30 01:46:15;;;;;;;13.30;2.00;;;7.80;99.90;;;;;;5071762;28;20024;-67
2022/01/30 01:48:42;;;;;;;;;;;7.80;99.90;;;;;;5073046;28;20119;-67
2022/01/30 01:51:16;;;;;;;17.23;2.80;;;7.80;99.90;;;;;;5072461;28;19920;-67
2022/01/30 01:53:43;;;;;;;21.63;3.53;;;7.70;99.90;;;;;;5065892;28;20024;-68
2022/01/30 01:56:12;;;;;;;22.35;3.78;;;7.70;99.90;;;;;;5068867;28;20065;-67
2022/01/30 01:58:37;;;;;;;15.75;2.47;;;7.80;99.90;;;;;;5057351;28;20505;-67
2022/01/30 02:01:03;;;;;;;22.55;3.53;;;7.80;99.90;;;;;;5068129;28;20052;-67
2022/01/30 02:03:29;;;;;;;20.85;3.35;;;7.80;99.90;;;;;;5067266;28;20030;-67
2022/01/30 02:05:59;;;;;;;17.67;2.63;;;7.70;99.90;;;;;;5069103;28;20021;-67
2022/01/30 02:08:31;;;;;;;18.67;3.03;;;7.70;99.90;;;;;;5044583;28;20021;-66
2022/01/30 02:11:01;;;;;;;19.20;2.85;;;7.70;99.90;;;;;;5057868;28;20078;-66
2022/01/30 02:24:22;;;;;;;11.27;1.77;;;7.50;99.90;;;;;;5061943;28;20074;-66
2022/01/30 02:26:49;;;;;;;15.20;3.10;;;7.50;99.90;;;;;;5064975;28;20024;-65
2022/01/30 02:29:14;;;;;;;15.35;2.53;;;7.50;99.90;;;;;;5065784;28;20643;-67
2022/01/30 02:31:42;;;;;;;13.45;1.90;;;7.50;99.90;;;;;;5058645;28;20188;-67
2022/01/30 02:34:08;;;;;;;10.38;2.00;;;7.40;99.90;;;;;;5068061;28;20107;-67
2022/01/30 02:36:47;;;;;;;9.07;2.15;;;7.40;99.90;;;;;;5056911;28;20036;-67
2022/01/30 02:39:13;;;;;;;12.80;2.13;;;7.40;99.90;;;;;;5071190;28;20043;-67
2022/01/30 02:41:40;;;;;;;20.80;2.90;;;7.40;99.90;;;;;;5058316;28;20021;-66
2022/01/30 02:46:47;;;;;;;14.32;2.53;;;7.40;99.90;;;;;;5061231;28;20025;-67
2022/01/30 02:54:21;;;;;;;12.50;2.45;;;7.40;99.90;;;;;;5072072;28;20135;-66
2022/01/30 02:56:47;;;;;;;16.50;2.50;;;7.40;99.90;;;;;;5062299;28;20091;-66
2022/01/30 02:59:14;;;;;;;14.98;2.30;;;7.50;99.90;;;;;;5070325;28;20044;-67
2022/01/30 03:01:39;;;;;;;20.10;2.38;;;7.50;99.90;;;;;;5055909;28;20025;-66
2022/01/30 03:04:05;;;;;;;12.27;1.85;;;7.50;99.90;;;;;;5054439;28;20490;-66
2022/01/30 03:06:31;;;;;;;12.95;2.30;;;7.50;99.90;;;;;;5054922;28;20116;-67
2022/01/30 03:08:57;;;;;;;18.20;3.22;;;7.50;99.90;;;;;;5054671;28;20344;-66
2022/01/30 03:11:23;;;;;;;23.38;3.20;;;7.50;99.90;;;;;;5074482;28;20033;-66
2022/01/30 03:13:48;;;;;;;11.75;1.85;;;7.50;99.90;;;;;;5074565;28;20078;-67
2022/01/30 03:16:14;;;;;;;15.98;3.30;;;7.50;99.90;;;;;;5074619;28;20025;-67
2022/01/30 03:18:41;;;;;;;13.65;2.75;;;7.50;99.90;;;;;;5065755;28;20028;-67
2022/01/30 03:21:06;;;;;;;12.82;1.98;;;7.40;99.90;;;;;;5051522;28;20139;-67
2022/01/30 03:23:36;;;;;;;20.05;3.08;;;7.40;99.90;;;;;;5054952;28;20096;-67
2022/01/30 03:26:02;;;;;;;17.52;2.90;;;7.40;99.90;;;;;;5065986;28;20033;-67
2022/01/30 03:28:28;;;;;;;29.85;4.63;;;7.30;99.90;;;;;;5051866;28;20036;-67
2022/01/30 03:30:58;;;;;;;10.30;2.50;;;7.40;99.90;;;;;;5057423;28;20017;-67
2022/01/30 03:33:24;;;;;;;13.02;1.67;;;7.40;99.90;;;;;;5067445;28;20455;-67
2022/01/30 03:35:50;;;;;;;16.67;2.60;;;7.30;99.90;;;;;;5057546;28;20036;-67
2022/01/30 03:38:15;;;;;;;14.27;2.63;;;7.30;99.90;;;;;;5068981;28;20032;-67
2022/01/30 03:40:43;;;;;;;17.33;2.90;;;7.30;99.90;;;;;;5060029;28;20025;-67
2022/01/30 03:43:09;;;;;;;16.20;2.45;;;7.40;99.90;;;;;;5071269;28;20013;-67
2022/01/30 03:45:35;;;;;;;23.60;3.38;;;7.40;99.90;;;;;;5060361;28;20028;-67
2022/01/30 03:48:01;;;;;;;21.17;3.97;;;7.40;99.90;;;;;;5056109;28;20163;-67
2022/01/30 03:50:26;;;;;;;25.63;3.63;;;7.40;99.90;;;;;;5073948;28;20804;-67
2022/01/30 03:52:54;;;;;;;12.85;2.47;;;7.40;99.90;;;;;;5068389;28;20025;-67
2022/01/30 03:55:20;;;;;;;22.52;2.40;;;7.30;99.90;;;;;;5053929;28;20024;-67
2022/01/30 03:57:46;;;;;;;14.55;3.28;;;7.30;99.90;;;;;;5053050;28;20025;-67
2022/01/30 04:00:12;;;;;;;14.10;2.50;;;7.40;99.90;;;;;;5066431;28;20048;-67
2022/01/30 04:02:38;;;;;;;16.45;2.35;;;7.30;99.90;;;;;;5065788;28;20447;-67
2022/01/30 04:05:04;;;;;;;15.32;2.90;;;7.40;99.90;;;;;;5054326;28;20178;-67
2022/01/30 04:07:31;;;;;;;21.50;2.67;;;7.30;99.90;;;;;;5068410;28;20446;-67
2022/01/30 04:09:57;;;;;;;13.82;4.72;;;7.40;99.90;;;;;;5057059;28;20067;-67
2022/01/30 04:12:23;;;;;;;17.88;2.55;;;7.40;99.90;;;;;;5067386;28;20113;-67
2022/01/30 04:14:49;;;;;;;15.10;2.83;;;7.40;99.90;;;;;;5062456;28;20035;-67
2022/01/30 04:17:18;;;;;;;12.38;3.58;;;7.40;99.90;;;;;;5060212;28;20441;-67
2022/01/30 04:19:43;;;;;;;13.00;2.53;;;7.40;99.90;;;;;;5069555;28;20123;-67
2022/01/30 04:22:09;;;;;;;21.27;3.30;;;7.50;99.90;;;;;;5056581;28;20096;-66
2022/01/30 04:24:35;;;;;;;13.98;2.95;;;7.40;99.90;;;;;;5065622;28;20360;-67
2022/01/30 04:27:00;;;;;;;11.30;2.33;;;7.40;99.90;;;;;;5063866;28;20028;-66
2022/01/30 04:29:26;;;;;;;21.98;2.75;;;7.40;99.90;;;;;;5064291;28;20056;-67
2022/01/30 04:31:53;;;;;;;14.68;2.50;;;7.40;99.90;;;;;;5056672;28;20035;-66
2022/01/30 04:34:19;;;;;;;15.95;2.88;;;7.40;99.90;;;;;;5052656;28;20360;-66
2022/01/30 04:42:08;;;;;;;17.92;3.08;;;7.40;99.90;;;;;;5069202;28;20040;-66
2022/01/30 04:52:54;;;;;;;13.93;2.58;;;7.50;99.90;;;;;;5058040;28;20078;-67
2022/01/30 05:02:55;;;;;;;28.33;4.75;;;7.80;99.90;;;;;;5065575;28;20024;-67
2022/01/30 05:08:06;;;;;;;17.95;3.42;;;7.90;99.90;;;;;;5069273;28;20079;-67
2022/01/30 05:10:32;;;;;;;16.10;2.90;;;7.90;99.90;;;;;;5064973;28;20447;-67
2022/01/30 05:13:00;;;;;;;17.52;2.88;;;7.90;99.90;;;;;;5062732;28;20085;-67
2022/01/30 05:15:28;;;;;;;17.80;3.05;;;7.80;99.90;;;;;;5058024;28;20036;-67
2022/01/30 05:17:54;;;;;;;21.23;3.25;;;7.70;99.90;;;;;;5068746;28;20020;-67
2022/01/30 05:20:20;;;;;;;21.60;3.40;;;7.70;99.90;;;;;;5056958;28;20048;-67
2022/01/30 05:22:46;;;;;;;23.83;3.10;;;7.60;99.90;;;;;;5063375;28;20025;-67
2022/01/30 05:25:12;;;;;;;21.13;3.15;;;7.60;99.90;;;;;;5044349;28;20021;-67
2022/01/30 05:27:38;;;;;;;20.52;3.35;;;7.50;99.90;;;;;;5068397;28;20429;-67
2022/01/30 05:30:05;;;;;;;23.23;2.80;;;7.50;99.90;;;;;;5055373;28;20024;-67
2022/01/30 05:32:31;;;;;;;21.00;3.65;;;7.40;99.90;;;;;;5065657;28;20071;-66
2022/01/30 05:34:57;;;;;;;23.30;3.58;;;7.40;99.90;;;;;;5062485;28;20382;-67
2022/01/30 05:37:23;;;;;;;28.75;3.85;;;7.40;99.90;;;;;;5058249;28;20587;-66
2022/01/30 05:39:49;;;;;;;24.45;3.72;;;7.30;99.90;;;;;;5068612;28;20032;-67
2022/01/30 05:42:15;;;;;;;24.42;3.83;;;7.30;99.90;;;;;;5054047;28;20052;-66
2022/01/30 05:47:14;;;;;;;19.30;3.05;;;7.30;99.90;;;;;;5059921;28;20031;-67
2022/01/30 05:49:40;;;;;;;25.27;4.15;;;7.20;99.90;;;;;;5068242;28;20044;-66
2022/01/30 05:52:06;;;;;;;17.10;2.58;;;7.20;99.90;;;;;;5051840;28;20021;-67
2022/01/30 05:54:32;;;;;;;24.33;3.25;;;7.20;99.90;;;;;;5043904;28;20032;-66
2022/01/30 05:56:57;;;;;;;20.83;3.58;;;7.20;99.90;;;;;;5062134;28;20025;-67
2022/01/30 05:59:23;;;;;;;16.63;3.03;;;7.20;99.90;;;;;;5061122;28;20036;-66
2022/01/30 06:01:49;;;;;;;21.33;3.80;;;7.10;99.90;;;;;;5055866;28;20060;-66
2022/01/30 06:04:14;;;;;;;17.90;2.67;;;7.10;99.90;;;;;;5056456;28;20378;-66
2022/01/30 06:06:48;;;;;;;22.20;4.00;;;7.10;99.90;;;;;;5063881;28;20056;-66
2022/01/30 06:11:43;;;;;;;20.85;3.35;;;7.10;99.90;;;;;;5055343;28;20067;-66
2022/01/30 06:14:08;;;;;;;20.38;3.42;;;7.10;99.90;;;;;;5067833;28;20029;-67
2022/01/30 06:16:34;;;;;;;26.98;3.58;;;7.10;99.90;;;;;;5052674;28;20514;-66
2022/01/30 06:19:01;;;;;;;22.58;3.58;;;7.10;99.90;;;;;;5052196;28;20432;-66
2022/01/30 06:21:27;;;;;;;29.48;3.67;;;7.10;99.90;;;;;;5052033;28;20025;-67
2022/01/30 06:23:53;;;;;;;23.13;3.60;;;7.00;99.90;;;;;;5052023;28;20082;-66
2022/01/30 06:26:18;;;;;;;26.25;4.10;;;7.00;99.90;;;;;;5052322;28;20022;-66
2022/01/30 06:28:44;;;;;;;21.58;3.10;;;7.00;99.90;;;;;;5052163;28;20032;-66
2022/01/30 06:31:09;;;;;;;27.95;3.97;;;6.90;99.90;;;;;;5072174;28;20374;-66
2022/01/30 06:33:35;;;;;;;23.05;4.03;;;6.90;99.90;;;;;;5048722;28;20463;-66
2022/01/30 06:36:01;;;;;;;35.90;5.30;;;6.90;99.90;;;;;;5051873;28;20104;-66
2022/01/30 06:38:26;;;;;;;27.75;3.78;;;6.90;99.90;;;;;;5052163;28;20037;-66
2022/01/30 06:40:52;;;;;;;17.92;3.22;;;6.90;99.90;;;;;;5055426;28;20025;-66
2022/01/30 06:43:17;;;;;;;26.17;4.72;;;6.90;99.90;;;;;;5056986;28;20085;-66
2022/01/30 06:45:43;;;;;;;25.42;4.70;;;7.00;99.90;;;;;;5066172;28;20524;-66
2022/01/30 06:48:09;;;;;;;20.92;4.00;;;7.10;99.90;;;;;;5055415;28;20174;-66
2022/01/30 06:50:35;;;;;;;27.75;4.07;;;7.10;99.90;;;;;;5060018;28;20051;-66
2022/01/30 06:53:01;;;;;;;22.95;3.75;;;7.30;99.90;;;;;;5074952;28;20110;-66
2022/01/30 06:55:27;;;;;;;27.50;3.45;;;7.40;99.90;;;;;;5074938;28;20036;-66
2022/01/30 06:57:52;;;;;;;22.65;3.45;;;7.50;99.90;;;;;;5074999;28;20032;-66
2022/01/30 07:00:18;;;;;;;25.80;4.45;;;7.50;99.90;;;;;;5075155;28;20500;-66
2022/01/30 07:02:43;;;;;;;26.33;3.67;;;7.60;99.90;;;;;;5066588;28;20031;-66
2022/01/30 07:05:09;;;;;;;31.65;5.50;;;7.70;99.90;;;;;;5073028;28;20108;-66
2022/01/30 07:07:36;;;;;;;28.10;4.47;;;7.70;99.90;;;;;;5055541;28;20082;-66
2022/01/30 07:10:02;;;;;;;28.67;4.63;;;7.70;99.90;;;;;;5062594;28;20100;-66
2022/01/30 07:12:28;;;;;;;27.33;3.70;;;7.70;99.90;;;;;;5048468;28;20147;-67
2022/01/30 07:14:53;;;;;;;21.88;4.10;;;7.80;99.90;;;;;;5056204;28;20505;-67
2022/01/30 07:17:19;;;;;;;31.58;5.65;;;7.80;99.90;;;;;;5071305;28;20056;-67
2022/01/30 07:19:44;;;;;;;29.83;4.65;;;7.80;99.90;;;;;;5056376;28;20037;-67
2022/01/30 07:22:10;;;;;;;27.67;4.53;;;7.80;99.90;;;;;;5063798;28;20030;-67
2022/01/30 07:24:36;;;;;;;31.75;3.97;;;7.80;99.90;;;;;;5066559;28;20036;-67
2022/01/30 07:27:01;;;;;;;22.88;3.58;;;7.80;99.90;;;;;;5057949;28;20036;-67
2022/01/30 07:29:27;;;;;;;25.73;3.88;;;7.80;99.90;;;;;;5070605;28;20032;-67
2022/01/30 07:31:52;;;;;;;29.00;3.97;;;7.80;99.90;;;;;;5061116;28;20037;-67
2022/01/30 07:34:21;;;;;;;28.25;3.65;;;7.80;99.90;;;;;;5063121;28;20367;-67
2022/01/30 07:36:47;;;;;;;26.02;4.03;;;7.70;99.90;;;;;;5068336;28;20451;-67
2022/01/30 07:39:15;;;;;;;21.42;3.80;;;7.70;99.90;;;;;;5057250;28;20033;-67
2022/01/30 07:41:40;;;;;;;27.10;4.05;;;7.70;99.90;;;;;;5072745;28;20070;-67
2022/01/30 07:44:06;;;;;;;24.10;3.75;;;7.60;99.90;;;;;;5065409;28;20037;-67
2022/01/30 07:46:32;;;;;;;21.38;4.43;;;7.60;99.90;;;;;;5066358;28;20050;-67
2022/01/30 07:48:58;;;;;;;34.63;5.90;;;7.70;99.90;;;;;;5057561;28;20083;-67
2022/01/30 07:51:23;;;;;;;27.98;5.13;;;7.60;99.90;;;;;;5069076;28;20032;-67
2022/01/30 07:53:49;;;;;;;30.45;5.28;;;7.70;99.90;;;;;;5063001;28;20518;-67
2022/01/30 07:56:15;;;;;;;30.98;4.93;;;7.70;99.90;;;;;;5059916;28;20120;-67
2022/01/30 07:58:40;;;;;;;20.95;3.50;;;7.70;99.90;;;;;;5043283;28;20524;-67
2022/01/30 08:01:06;;;;;;;22.63;4.10;;;7.70;99.90;;;;;;5070292;28;20086;-67
2022/01/30 08:03:32;;;;;;;27.75;4.65;;;7.70;99.90;;;;;;5057176;28;20462;-67
2022/01/30 08:05:57;;;;;;;29.40;4.65;;;7.70;99.90;;;;;;5065409;28;20054;-67
2022/01/30 08:08:23;;;;;;;24.13;4.03;;;7.70;99.90;;;;;;5046327;28;20062;-67
2022/01/30 08:10:48;;;;;;;26.73;4.60;;;7.70;99.90;;;;;;5058678;28;20029;-68
2022/01/30 08:13:15;;;;;;;30.45;7.43;;;7.70;99.90;;;;;;5069541;28;20028;-67
2022/01/30 08:15:42;;;;;;;23.38;4.25;;;7.80;99.90;;;;;;5048604;28;20017;-67
2022/01/30 08:18:07;;;;;;;27.63;5.47;;;7.80;99.90;;;;;;5054229;28;20025;-67
2022/01/30 08:20:33;;;;;;;22.90;4.28;;;7.80;99.90;;;;;;5065464;28;20094;-67
2022/01/30 08:23:00;;;;;;;25.50;4.28;;;7.80;99.90;;;;;;5057065;28;20051;-67
2022/01/30 08:25:26;;;;;;;27.33;5.28;;;7.80;99.90;;;;;;5069725;28;20021;-67
2022/01/30 08:27:53;;;;;;;28.00;4.85;;;7.90;99.90;;;;;;5042092;28;20037;-66
2022/01/30 08:30:19;;;;;;;26.77;4.68;;;7.90;99.90;;;;;;5062315;28;20048;-68
2022/01/30 08:32:48;;;;;;;26.90;4.28;;;7.90;99.90;;;;;;5060357;28;20467;-67
2022/01/30 08:35:14;;;;;;;27.95;4.85;;;8.00;99.90;;;;;;5069407;28;20024;-66
2022/01/30 08:37:40;;;;;;;31.38;5.50;;;8.10;99.90;;;;;;5056787;28;20025;-68
2022/01/30 08:40:10;;;;;;;68.60;22.80;;;8.10;99.90;;;;;;5063727;28;20041;-67
2022/01/30 08:42:36;;;;;;;27.85;5.68;;;8.20;99.90;;;;;;5052258;28;20568;-66
2022/01/30 08:45:02;;;;;;;33.83;4.85;;;8.30;99.90;;;;;;5068461;28;20111;-66
2022/01/30 08:47:28;;;;;;;31.75;4.65;;;8.30;99.90;;;;;;5055767;28;20104;-67
2022/01/30 08:49:54;;;;;;;23.52;3.67;;;8.40;99.90;;;;;;5046062;28;20135;-66
2022/01/30 08:52:20;;;;;;;37.22;4.93;;;8.50;99.90;;;;;;5063370;28;20031;-66
2022/01/30 08:54:48;;;;;;;27.00;5.10;;;8.50;99.90;;;;;;5040394;28;20495;-67
2022/01/30 08:57:13;;;;;;;15.10;2.83;;;8.50;99.90;;;;;;5060498;28;20090;-67
2022/01/30 08:59:39;;;;;;;28.55;3.97;;;8.50;99.90;;;;;;5068358;28;20029;-66
2022/01/30 09:02:05;;;;;;;24.88;4.35;;;8.40;99.90;;;;;;5063755;28;20021;-67
2022/01/30 09:04:32;;;;;;;20.45;3.92;;;8.40;99.90;;;;;;5064951;28;20025;-65
2022/01/30 09:06:57;;;;;;;28.13;6.30;;;8.40;99.90;;;;;;5056707;28;20535;-68
2022/01/30 09:09:23;;;;;;;27.42;4.03;;;8.40;99.90;;;;;;5069071;28;20040;-67
2022/01/30 09:11:48;;;;;;;22.50;3.55;;;8.40;99.90;;;;;;5058510;28;20435;-67
2022/01/30 09:14:15;;;;;;;25.30;4.82;;;8.50;99.90;;;;;;5062759;28;20044;-66
2022/01/30 09:16:42;;;;;;;29.70;4.35;;;8.60;99.90;;;;;;5065671;28;20090;-67
2022/01/30 09:19:08;;;;;;;24.45;4.95;;;8.70;99.90;;;;;;5055535;28;20024;-67
2022/01/30 09:21:33;;;;;;;27.48;5.18;;;8.90;99.90;;;;;;5067650;28;20032;-67
2022/01/30 09:23:59;;;;;;;28.65;4.43;;;9.00;99.90;;;;;;5052799;28;20419;-67
2022/01/30 09:26:24;;;;;;;27.58;4.15;;;9.00;99.90;;;;;;5045514;28;20107;-66
2022/01/30 09:28:50;;;;;;;103.38;41.75;;;9.10;99.90;;;;;;5061153;28;20032;-67
2022/01/30 09:31:16;;;;;;;20.55;4.60;;;9.20;99.90;;;;;;5062105;28;20036;-67
2022/01/30 09:33:41;;;;;;;20.15;4.20;;;9.20;99.90;;;;;;5066738;28;20459;-67
2022/01/30 09:36:07;;;;;;;32.08;5.60;;;9.30;99.90;;;;;;5060566;28;20072;-67
2022/01/30 09:38:33;;;;;;;22.75;5.03;;;9.40;99.90;;;;;;5059282;28;20029;-67
2022/01/30 09:40:59;;;;;;;55.80;18.98;;;9.60;99.90;;;;;;5059084;28;20037;-67
2022/01/30 09:43:29;;;;;;;29.73;6.72;;;10.00;99.90;;;;;;5068436;28;20106;-67
2022/01/30 09:45:55;;;;;;;21.23;5.78;;;10.40;99.90;;;;;;5060630;28;20032;-67
2022/01/30 09:48:23;;;;;;;24.17;4.82;;;10.50;99.90;;;;;;5062377;28;20017;-67
2022/01/30 09:50:49;;;;;;;30.10;6.57;;;10.40;99.90;;;;;;5056799;28;20065;-67
2022/01/30 09:53:15;;;;;;;30.80;5.47;;;10.50;99.90;;;;;;5060932;28;20466;-67
2022/01/30 09:55:41;;;;;;;29.92;4.63;;;10.80;99.90;;;;;;5057317;28;20021;-67
2022/01/30 09:58:07;;;;;;;34.53;5.38;;;11.10;99.90;;;;;;5070693;28;20031;-67
2022/01/30 10:00:34;;;;;;;21.45;5.15;;;11.50;99.90;;;;;;5059330;28;20035;-66
2022/01/30 10:03:00;;;;;;;24.70;5.03;;;12.00;99.90;;;;;;5063346;28;20029;-66
2022/01/30 10:05:28;;;;;;;28.92;5.13;;;12.50;99.90;;;;;;5062834;28;20032;-66
2022/01/30 10:07:56;;;;;;;22.00;3.85;;;12.80;99.00;;;;;;5058714;28;20107;-66
2022/01/30 10:10:25;;;;;;;25.13;4.90;;;12.60;97.80;;;;;;5060795;28;20035;-67
2022/01/30 10:13:06;;;;;;;25.63;4.72;;;12.20;97.80;;;;;;5066534;28;20056;-67
2022/01/30 10:16:03;;;;;;;18.38;4.35;;;11.80;97.80;;;;;;5063842;28;20023;-66
2022/01/30 10:18:33;;;;;;;23.50;4.15;;;11.50;97.90;;;;;;5055645;28;20053;-67
2022/01/30 10:21:00;;;;;;;26.77;4.07;;;11.80;98.20;;;;;;5055586;28;20036;-67
2022/01/30 10:23:35;;;;;;;29.27;5.45;;;12.40;97.00;;;;;;5061272;28;20107;-67
2022/01/30 10:26:06;;;;;;;24.70;4.18;;;12.40;97.20;;;;;;5075561;28;20482;-67
2022/01/30 10:28:32;;;;;;;18.35;3.97;;;12.20;96.90;;;;;;5075583;28;20547;-67
2022/01/30 10:31:00;;;;;;;23.83;3.83;;;11.90;97.20;;;;;;5075025;28;20029;-67
2022/01/30 10:33:45;;;;;;;25.77;4.88;;;11.60;97.50;;;;;;5055205;28;20090;-66
2022/01/30 10:36:12;;;;;;;25.58;4.40;;;11.30;98.30;;;;;;5055459;28;20029;-66
2022/01/30 10:38:41;;;;;;;38.60;5.05;;;11.10;99.00;;;;;;5055307;28;20031;-67
2022/01/30 10:41:15;;;;;;;24.73;5.15;;;11.00;99.40;;;;;;5055257;28;20379;-67
2022/01/30 10:44:04;;;;;;;22.75;4.22;;;11.10;99.50;;;;;;5055255;28;20028;-66
2022/01/30 10:46:46;;;;;;;19.83;3.78;;;11.60;98.00;;;;;;5055038;28;20394;-67
2022/01/30 10:49:17;;;;;;;18.00;3.72;;;12.20;96.80;;;;;;5055910;28;20036;-67
2022/01/30 10:51:59;;;;;;;18.40;3.35;;;12.80;96.00;;;;;;5055442;28;20029;-67
2022/01/30 10:54:30;;;;;;;26.20;3.97;;;13.50;94.70;;;;;;5055066;28;20493;-67
2022/01/30 10:57:07;;;;;;;24.75;4.25;;;13.70;94.00;;;;;;5055394;28;20032;-66
2022/01/30 10:59:33;;;;;;;24.33;4.30;;;13.60;94.00;;;;;;5054884;28;20112;-65
2022/01/30 11:02:16;;;;;;;20.55;3.88;;;13.60;93.90;;;;;;5055143;28;20044;-66
2022/01/30 11:04:44;;;;;;;30.17;4.43;;;13.60;93.60;;;;;;5054834;28;20125;-65
2022/01/30 11:07:11;;;;;;;17.42;3.72;;;13.70;93.50;;;;;;5055368;28;20140;-66
2022/01/30 11:09:44;;;;;;;20.48;4.20;;;14.00;93.70;;;;;;5054906;28;20082;-66
2022/01/30 11:12:14;;;;;;;20.77;4.00;;;14.30;92.40;;;;;;5054754;28;20039;-65
2022/01/30 11:17:18;;;;;;;22.58;3.92;;;14.70;90.60;;;;;;5054634;28;20029;-66
2022/01/30 11:19:47;;;;;;;23.58;3.58;;;14.50;90.80;;;;;;5054810;28;20040;-66
2022/01/30 11:22:14;;;;;;;22.30;5.13;;;14.20;91.50;;;;;;5055294;28;20035;-66
2022/01/30 11:24:48;;;;;;;25.23;4.80;;;14.10;91.90;;;;;;5070264;28;20025;-66
2022/01/30 11:27:18;;;;;;;23.70;5.18;;;14.40;91.80;;;;;;5074734;28;20449;-66
2022/01/30 11:29:45;;;;;;;24.98;5.00;;;14.60;91.40;;;;;;5074411;28;20024;-67
2022/01/30 11:32:11;;;;;;;31.08;8.60;;;14.70;90.30;;;;;;5074386;28;20036;-66
2022/01/30 11:34:39;;;;;;;19.98;4.45;;;14.50;90.00;;;;;;5074378;28;20048;-66
2022/01/30 11:37:07;;;;;;;28.23;5.80;;;14.30;90.00;;;;;;5074031;28;20157;-66
2022/01/30 11:39:33;;;;;;;26.85;5.90;;;14.10;90.30;;;;;;5069279;28;20124;-66
2022/01/30 11:42:08;;;;;;;23.67;5.28;;;13.90;90.70;;;;;;5054367;28;20032;-66
2022/01/30 11:44:34;;;;;;;21.88;4.00;;;13.60;91.40;;;;;;5054296;28;20063;-66
2022/01/30 11:47:03;;;;;;;23.20;4.75;;;13.60;91.70;;;;;;5053804;28;20025;-67
2022/01/30 11:50:14;;;;;;;24.58;3.78;;;13.40;92.10;;;;;;5053774;28;20102;-67
2022/01/30 11:52:50;;;;;;;27.00;4.72;;;13.10;93.40;;;;;;4972628;28;20031;-67
2022/01/30 11:55:38;;;;;;;29.08;5.35;;;13.20;93.90;;;;;;5042576;28;20143;-67
2022/01/30 11:58:04;;;;;;;28.30;4.20;;;13.10;94.00;;;;;;5062462;28;20025;-67
2022/01/30 12:00:38;;;;;;;30.13;5.05;;;13.40;94.00;;;;;;5073002;28;20033;-67
2022/01/30 12:03:24;;;;;;;18.35;3.97;;;13.80;93.70;;;;;;5056154;28;20025;-67
2022/01/30 12:05:51;;;;;;;25.00;4.63;;;14.00;93.00;;;;;;5061231;28;20020;-67
2022/01/30 12:08:49;;;;;;;27.40;4.60;;;14.10;92.20;;;;;;5062180;28;20061;-67
2022/01/30 12:11:34;;;;;;;25.27;4.38;;;14.30;91.30;;;;;;5069940;28;20029;-67
2022/01/30 12:14:10;;;;;;;24.23;4.45;;;14.30;91.90;;;;;;5053579;28;20051;-67
2022/01/30 12:16:51;;;;;;;19.08;3.53;;;14.60;91.80;;;;;;5055550;28;20021;-67
2022/01/30 12:19:40;;;;;;;20.42;3.88;;;15.10;90.50;;;;;;5069810;28;20029;-67
2022/01/30 12:22:18;;;;;;;22.92;4.25;;;15.20;89.40;;;;;;5063183;28;20066;-67
2022/01/30 12:24:45;;;;;;;24.00;4.85;;;15.20;89.10;;;;;;5072104;28;20029;-67
2022/01/30 12:27:11;;;;;;;29.17;4.85;;;15.10;89.40;;;;;;5056205;28;20036;-66
2022/01/30 12:29:43;;;;;;;22.00;3.90;;;15.20;88.20;;;;;;5064765;28;20036;-66
2022/01/30 12:32:24;;;;;;;26.77;4.68;;;15.30;88.20;;;;;;5060149;28;20025;-67
2022/01/30 12:34:55;;;;;;;24.88;5.25;;;15.20;87.80;;;;;;5064582;28;20032;-66
2022/01/30 12:37:30;;;;;;;19.45;3.95;;;14.90;86.50;;;;;;5055907;28;20027;-66
2022/01/30 12:40:01;;;;;;;23.13;4.10;;;14.40;87.20;;;;;;5064276;28;20037;-66
2022/01/30 12:42:32;;;;;;;24.90;3.65;;;13.90;88.80;;;;;;5065815;28;20028;-66
2022/01/30 12:45:03;;;;;;;24.80;4.22;;;13.40;90.50;;;;;;5055899;28;20171;-67
2022/01/30 12:47:29;;;;;;;21.17;3.85;;;13.10;91.30;;;;;;5064361;28;20032;-67
2022/01/30 12:49:58;;;;;;;21.20;4.40;;;12.90;92.10;;;;;;5063423;28;20060;-66
2022/01/30 12:54:59;;;;;;;19.20;3.58;;;13.20;92.20;;;;;;5069209;28;20028;-66
2022/01/30 12:57:26;;;;;;;22.30;4.90;;;13.50;91.00;;;;;;5056528;28;20024;-67
2022/01/30 12:59:56;;;;;;;21.92;4.13;;;13.50;91.00;;;;;;5064220;28;20037;-66
2022/01/30 13:02:23;;;;;;;24.73;4.38;;;13.30;91.40;;;;;;5064633;28;20036;-66
2022/01/30 13:05:04;;;;;;;26.90;5.00;;;13.10;91.90;;;;;;5063535;28;20035;-66
2022/01/30 13:07:29;;;;;;;27.58;4.50;;;12.80;92.80;;;;;;5056950;28;20021;-66
2022/01/30 13:10:12;;;;;;;23.92;4.68;;;12.40;93.60;;;;;;5062866;28;20483;-66
2022/01/30 13:12:39;;;;;;;26.27;4.32;;;12.10;94.40;;;;;;5066576;28;20117;-66
2022/01/30 13:15:10;;;;;;;24.25;4.40;;;11.90;94.90;;;;;;5055347;28;20459;-66
2022/01/30 13:17:36;;;;;;;23.03;4.40;;;11.80;95.30;;;;;;5066890;28;20040;-66
2022/01/30 13:20:04;;;;;;;25.67;3.95;;;11.80;95.20;;;;;;5061482;28;20041;-67
2022/01/30 13:22:34;;;;;;;26.05;5.00;;;11.60;95.30;;;;;;5053484;28;20036;-67
2022/01/30 13:25:05;;;;;;;30.38;4.63;;;11.50;95.70;;;;;;5070501;28;20035;-66
2022/01/30 13:27:31;;;;;;;22.27;4.65;;;11.40;96.00;;;;;;5052868;28;20398;-66
2022/01/30 13:29:57;;;;;;;31.70;4.38;;;11.20;96.70;;;;;;5054737;28;20037;-66
2022/01/30 13:32:26;;;;;;;25.15;4.13;;;11.10;97.30;;;;;;5059959;28;20032;-66
2022/01/30 13:34:53;;;;;;;25.88;4.30;;;11.00;97.70;;;;;;5058829;28;20040;-66
2022/01/30 13:37:20;;;;;;;28.67;4.82;;;11.00;98.10;;;;;;5055257;28;20029;-66
2022/01/30 13:48:02;;;;;;;23.45;4.03;;;10.90;99.00;;;;;;5060329;28;20086;-66
2022/01/30 13:50:33;;;;;;;32.25;4.22;;;10.90;99.00;;;;;;5064988;28;20041;-66
2022/01/30 13:53:03;;;;;;;27.42;3.70;;;11.10;98.80;;;;;;5065256;28;20032;-66
2022/01/30 13:55:29;;;;;;;24.75;4.50;;;11.20;97.70;;;;;;5062120;28;20021;-67
2022/01/30 13:57:58;;;;;;;20.65;3.70;;;11.30;97.20;;;;;;5060619;28;20024;-66
2022/01/30 14:00:29;;;;;;;33.17;6.05;;;11.30;97.30;;;;;;5048943;28;20041;-65
2022/01/30 14:02:55;;;;;;;20.65;3.65;;;11.40;97.00;;;;;;5069166;28;20128;-66
2022/01/30 14:05:25;;;;;;;25.13;3.50;;;11.40;95.50;;;;;;5059039;28;20067;-65
2022/01/30 14:07:55;;;;;;;25.23;3.58;;;11.40;95.20;;;;;;5071659;28;20072;-66